createdAt,value
2018-05-27T00:00:19.897Z,2.93
2018-05-27T00:02:46.930Z,2.90
2018-05-27T00:05:15.468Z,3.20
2018-05-27T00:07:42.541Z,2.90
2018-05-27T00:10:09.560Z,3.20
2018-05-27T00:12:36.545Z,3.03
2018-05-27T00:15:03.542Z,3.00
2018-05-27T00:17:30.552Z,3.30
2018-05-27T00:19:57.546Z,2.83
2018-05-27T00:22:24.542Z,2.93
2018-05-27T00:24:51.568Z,3.10
2018-05-27T00:27:18.549Z,3.37
2018-05-27T00:29:46.489Z,3.37
2018-05-27T00:32:13.511Z,3.30
2018-05-27T00:34:41.379Z,3.40
2018-05-27T00:37:09.208Z,3.70
2018-05-27T00:39:36.245Z,3.73
2018-05-27T00:42:03.233Z,3.53
2018-05-27T00:44:30.227Z,3.50
2018-05-27T00:46:57.258Z,3.40
2018-05-27T00:49:24.247Z,3.00
2018-05-27T00:51:51.231Z,3.30
2018-05-27T00:54:18.987Z,3.50
2018-05-27T00:56:45.978Z,2.97
2018-05-27T00:59:12.973Z,3.63
2018-05-27T01:01:39.993Z,3.67
2018-05-27T01:04:06.972Z,4.00
2018-05-27T01:06:34.262Z,3.47
2018-05-27T01:11:43.487Z,4.25
2018-05-27T01:14:10.518Z,4.20
2018-05-27T01:16:37.532Z,3.97
2018-05-27T01:19:06.395Z,3.63
2018-05-27T01:21:33.419Z,4.30
2018-05-27T01:24:00.404Z,3.97
2018-05-27T01:26:27.393Z,3.13
2018-05-27T01:28:56.348Z,3.57
2018-05-27T01:31:23.344Z,3.40
2018-05-27T01:33:50.332Z,3.50
2018-05-27T01:36:17.358Z,3.50
2018-05-27T01:38:44.337Z,3.43
2018-05-27T01:41:11.327Z,3.20
2018-05-27T01:43:39.165Z,3.60
2018-05-27T01:46:06.153Z,2.97
2018-05-27T01:48:33.129Z,3.60
2018-05-27T01:51:00.144Z,3.60
2018-05-27T01:53:27.122Z,3.83
2018-05-27T01:55:54.108Z,3.70
2018-05-27T01:58:21.134Z,4.00
2018-05-27T02:00:48.123Z,3.67
2018-05-27T02:03:15.112Z,3.73
2018-05-27T02:05:42.127Z,3.97
2018-05-27T02:08:10.109Z,3.63
2018-05-27T02:10:37.087Z,4.00
2018-05-27T02:13:04.105Z,3.63
2018-05-27T02:15:31.090Z,3.80
2018-05-27T02:17:58.075Z,3.57
2018-05-27T02:20:25.108Z,3.90
2018-05-27T02:22:52.933Z,4.00
2018-05-27T02:28:00.416Z,4.28
2018-05-27T02:30:28.245Z,4.00
2018-05-27T02:32:55.289Z,3.60
2018-05-27T02:35:22.311Z,3.77
2018-05-27T02:37:49.305Z,3.87
2018-05-27T02:40:16.278Z,3.63
2018-05-27T02:42:43.309Z,3.57
2018-05-27T02:45:10.289Z,3.90
2018-05-27T02:47:37.261Z,3.60
2018-05-27T02:50:04.273Z,4.20
2018-05-27T02:52:31.257Z,3.87
2018-05-27T02:57:36.409Z,3.90
2018-05-27T03:00:03.348Z,3.30
2018-05-27T03:02:30.330Z,3.83
2018-05-27T03:04:57.343Z,3.70
2018-05-27T03:07:24.333Z,2.80
2018-05-27T03:09:51.309Z,3.87
2018-05-27T03:12:18.319Z,3.87
2018-05-27T03:14:45.295Z,3.70
2018-05-27T03:17:12.275Z,3.27
2018-05-27T03:19:39.305Z,3.50
2018-05-27T03:22:06.287Z,3.83
2018-05-27T03:24:33.259Z,3.67
2018-05-27T03:27:01.060Z,3.20
2018-05-27T03:29:28.071Z,3.43
2018-05-27T03:31:58.093Z,3.90
2018-05-27T03:34:25.113Z,3.57
2018-05-27T03:36:52.089Z,3.73
2018-05-27T03:39:19.913Z,3.60
2018-05-27T03:41:46.925Z,3.50
2018-05-27T03:44:13.990Z,3.60
2018-05-27T03:46:40.977Z,3.87
2018-05-27T03:49:09.145Z,3.87
2018-05-27T03:51:36.120Z,3.70
2018-05-27T03:54:04.059Z,3.77
2018-05-27T03:56:31.084Z,3.93
2018-05-27T03:59:00.367Z,3.97
2018-05-27T04:01:27.379Z,3.73
2018-05-27T04:04:06.342Z,3.30
2018-05-27T04:09:18.155Z,4.28
2018-05-27T04:11:45.133Z,3.50
2018-05-27T04:14:12.116Z,3.80
2018-05-27T04:16:42.184Z,4.20
2018-05-27T04:19:09.215Z,3.63
2018-05-27T04:21:36.242Z,4.00
2018-05-27T04:24:03.252Z,4.00
2018-05-27T04:26:30.233Z,4.40
2018-05-27T04:28:57.211Z,4.23
2018-05-27T04:31:24.242Z,4.17
2018-05-27T04:33:51.223Z,4.10
2018-05-27T04:36:18.201Z,4.57
2018-05-27T04:38:46.197Z,4.93
2018-05-27T04:41:13.186Z,4.10
2018-05-27T04:43:40.160Z,4.13
2018-05-27T04:46:07.216Z,5.27
2018-05-27T04:48:34.194Z,4.57
2018-05-27T04:51:01.173Z,4.60
2018-05-27T04:53:28.198Z,3.93
2018-05-27T04:55:55.202Z,4.63
2018-05-27T04:58:23.015Z,4.53
2018-05-27T05:00:50.206Z,4.57
2018-05-27T05:03:17.218Z,4.07
2018-05-27T05:05:44.198Z,4.33
2018-05-27T05:08:11.516Z,4.20
2018-05-27T05:10:38.512Z,4.43
2018-05-27T05:13:05.491Z,4.60
2018-05-27T05:15:32.543Z,4.97
2018-05-27T05:17:59.519Z,5.37
2018-05-27T05:20:27.416Z,5.47
2018-05-27T05:22:54.444Z,5.43
2018-05-27T05:25:21.418Z,4.90
2018-05-27T05:27:48.396Z,5.10
2018-05-27T05:30:15.498Z,4.50
2018-05-27T05:35:23.046Z,5.32
2018-05-27T05:37:50.927Z,5.03
2018-05-27T05:40:17.895Z,4.70
2018-05-27T05:42:44.912Z,5.00
2018-05-27T05:45:11.886Z,4.53
2018-05-27T05:47:38.859Z,4.47
2018-05-27T05:50:05.885Z,5.43
2018-05-27T05:52:32.865Z,5.70
2018-05-27T05:54:59.846Z,5.70
2018-05-27T05:57:26.867Z,5.23
2018-05-27T05:59:53.844Z,5.73
2018-05-27T06:02:20.828Z,5.70
2018-05-27T06:04:47.843Z,6.83
2018-05-27T06:07:14.831Z,6.40
2018-05-27T06:09:41.822Z,6.97
2018-05-27T06:12:08.831Z,7.00
2018-05-27T06:14:35.859Z,7.13
2018-05-27T06:17:02.839Z,6.33
2018-05-27T06:19:29.867Z,7.33
2018-05-27T06:21:57.023Z,7.30
2018-05-27T06:24:24.006Z,7.03
2018-05-27T06:26:51.023Z,6.33
2018-05-27T06:29:18.084Z,6.40
2018-05-27T06:31:45.060Z,5.77
2018-05-27T06:34:12.072Z,6.47
2018-05-27T06:36:39.060Z,5.20
2018-05-27T06:39:06.044Z,6.10
2018-05-27T06:41:33.803Z,5.30
2018-05-27T06:44:00.777Z,5.13
2018-05-27T06:46:28.575Z,5.67
2018-05-27T06:48:55.584Z,5.03
2018-05-27T06:51:22.567Z,5.43
2018-05-27T06:53:49.557Z,5.67
2018-05-27T06:56:16.583Z,5.80
2018-05-27T07:01:22.084Z,6.70
2018-05-27T07:03:49.076Z,6.17
2018-05-27T07:06:16.076Z,5.33
2018-05-27T07:08:43.083Z,6.67
2018-05-27T07:11:10.063Z,5.77
2018-05-27T07:13:37.073Z,6.50
2018-05-27T07:16:04.101Z,6.53
2018-05-27T07:18:31.082Z,6.93
2018-05-27T07:21:00.172Z,5.87
2018-05-27T07:23:27.242Z,6.00
2018-05-27T07:25:55.092Z,6.13
2018-05-27T07:28:22.066Z,6.00
2018-05-27T07:30:49.817Z,6.60
2018-05-27T07:33:16.785Z,7.10
2018-05-27T07:35:43.764Z,6.77
2018-05-27T07:38:10.777Z,6.73
2018-05-27T07:40:39.841Z,6.53
2018-05-27T07:43:10.255Z,6.67
2018-05-27T07:45:37.236Z,6.77
2018-05-27T07:48:04.218Z,6.17
2018-05-27T07:50:31.223Z,6.77
2018-05-27T07:52:58.219Z,5.87
2018-05-27T07:55:25.208Z,5.40
2018-05-27T07:57:52.231Z,6.67
2018-05-27T08:00:19.212Z,6.53
2018-05-27T08:02:46.190Z,6.07
2018-05-27T08:05:13.200Z,5.90
2018-05-27T08:07:40.201Z,5.87
2018-05-27T08:10:10.519Z,6.00
2018-05-27T08:12:37.542Z,5.90
2018-05-27T08:15:04.532Z,6.03
2018-05-27T08:17:31.510Z,6.00
2018-05-27T08:19:58.611Z,6.10
2018-05-27T08:25:05.022Z,6.47
2018-05-27T08:27:31.985Z,6.40
2018-05-27T08:29:58.957Z,5.93
2018-05-27T08:32:26.924Z,6.13
2018-05-27T08:34:54.480Z,6.40
2018-05-27T08:37:21.460Z,6.40
2018-05-27T08:39:48.472Z,6.93
2018-05-27T08:42:15.457Z,5.83
2018-05-27T08:44:42.502Z,5.87
2018-05-27T08:47:09.517Z,5.47
2018-05-27T08:49:36.583Z,5.90
2018-05-27T08:52:03.564Z,5.90
2018-05-27T08:54:30.594Z,6.53
2018-05-27T08:56:57.584Z,5.60
2018-05-27T08:59:24.561Z,6.67
2018-05-27T09:01:53.424Z,6.00
2018-05-27T09:04:20.405Z,6.00
2018-05-27T09:06:47.386Z,6.67
2018-05-27T09:09:14.413Z,5.57
2018-05-27T09:11:41.393Z,6.10
2018-05-27T09:14:08.364Z,5.57
2018-05-27T09:16:36.358Z,6.00
2018-05-27T09:19:03.335Z,5.77
2018-05-27T09:21:30.331Z,5.77
2018-05-27T09:23:57.368Z,5.10
2018-05-27T09:26:24.371Z,5.50
2018-05-27T09:28:51.388Z,4.63
2018-05-27T09:31:18.430Z,4.63
2018-05-27T09:33:45.407Z,4.37
2018-05-27T09:36:12.404Z,4.90
2018-05-27T09:38:39.476Z,5.00
2018-05-27T09:41:07.791Z,4.83
2018-05-27T09:46:14.186Z,4.87
2018-05-27T09:48:42.041Z,4.60
2018-05-27T09:51:09.209Z,4.40
2018-05-27T09:53:38.285Z,4.97
2018-05-27T09:56:05.276Z,4.00
2018-05-27T09:58:32.296Z,3.60
2018-05-27T10:00:59.319Z,4.13
2018-05-27T10:03:27.310Z,4.60
2018-05-27T10:05:55.257Z,4.20
2018-05-27T10:08:22.298Z,4.00
2018-05-27T10:10:50.135Z,4.57
2018-05-27T10:13:17.132Z,3.80
2018-05-27T10:15:44.158Z,4.03
2018-05-27T10:18:11.955Z,4.67
2018-05-27T10:20:38.944Z,4.40
2018-05-27T10:23:05.982Z,4.93
2018-05-27T10:25:32.985Z,4.43
2018-05-27T10:27:59.971Z,4.37
2018-05-27T10:30:27.019Z,4.67
2018-05-27T10:32:56.237Z,4.23
2018-05-27T10:35:23.239Z,4.23
2018-05-27T10:37:51.093Z,4.60
2018-05-27T10:40:18.079Z,4.90
2018-05-27T10:42:45.061Z,4.67
2018-05-27T10:45:12.925Z,4.30
2018-05-27T10:50:21.368Z,5.30
2018-05-27T10:52:49.309Z,4.53
2018-05-27T10:55:16.285Z,5.23
2018-05-27T10:57:43.306Z,5.47
2018-05-27T11:00:11.128Z,4.47
2018-05-27T11:02:38.937Z,4.47
2018-05-27T11:05:06.697Z,4.57
2018-05-27T11:07:33.682Z,3.80
2018-05-27T11:10:00.680Z,3.90
2018-05-27T11:12:28.739Z,4.03
2018-05-27T11:14:56.638Z,3.90
2018-05-27T11:17:23.625Z,3.80
2018-05-27T11:19:50.645Z,3.80
2018-05-27T11:22:17.630Z,3.40
2018-05-27T11:24:44.615Z,3.60
2018-05-27T11:27:11.650Z,3.37
2018-05-27T11:29:38.639Z,3.20
2018-05-27T11:32:06.355Z,3.50
2018-05-27T11:34:33.364Z,4.23
2018-05-27T11:37:00.374Z,3.63
2018-05-27T11:39:27.327Z,4.20
2018-05-27T11:41:54.356Z,3.93
2018-05-27T11:44:21.339Z,4.03
2018-05-27T11:46:48.332Z,4.20
2018-05-27T11:49:15.345Z,3.90
2018-05-27T11:51:42.336Z,3.63
2018-05-27T11:54:10.077Z,3.80
2018-05-27T11:56:37.079Z,3.87
2018-05-27T11:59:04.059Z,3.70
2018-05-27T12:01:31.039Z,2.93
2018-05-27T12:03:58.961Z,2.80
2018-05-27T12:11:42.842Z,2.70
2018-05-27T12:14:10.020Z,3.07
2018-05-27T12:16:36.998Z,3.03
2018-05-27T12:19:03.979Z,2.27
2018-05-27T12:21:31.920Z,2.53
2018-05-27T12:26:26.197Z,2.60
2018-05-27T12:28:54.361Z,2.20
2018-05-27T12:31:21.339Z,2.17
2018-05-27T12:33:49.469Z,2.07
2018-05-27T12:36:16.556Z,2.03
2018-05-27T12:38:44.622Z,2.37
2018-05-27T12:41:12.683Z,2.53
2018-05-27T12:43:43.134Z,2.17
2018-05-27T12:46:11.458Z,2.30
2018-05-27T12:48:40.112Z,2.37
2018-05-27T12:51:08.784Z,2.53
2018-05-27T12:53:35.782Z,1.80
2018-05-27T12:56:02.843Z,2.30
2018-05-27T12:58:31.880Z,2.85
2018-05-27T13:01:00.731Z,3.60
2018-05-27T13:03:28.911Z,3.27
2018-05-27T13:05:56.270Z,3.63
2018-05-27T13:08:23.723Z,3.80
2018-05-27T13:10:51.819Z,3.40
2018-05-27T13:13:18.559Z,3.23
2018-05-27T13:15:45.646Z,2.70
2018-05-27T13:18:13.860Z,2.50
2018-05-27T13:20:41.933Z,2.50
2018-05-27T13:23:13.391Z,2.63
2018-05-27T13:25:41.357Z,2.30
2018-05-27T13:28:09.503Z,1.90
2018-05-27T13:30:36.640Z,3.03
2018-05-27T13:33:04.681Z,2.30
2018-05-27T13:35:31.701Z,2.43
2018-05-27T13:40:37.311Z,3.17
2018-05-27T13:43:04.368Z,2.87
2018-05-27T13:45:31.355Z,2.30
2018-05-27T13:48:00.498Z,2.00
2018-05-27T13:50:27.469Z,2.17
2018-05-27T13:52:55.386Z,2.10
2018-05-27T13:55:22.592Z,2.10
2018-05-27T13:57:49.537Z,2.40
2018-05-27T14:00:17.434Z,1.40
2018-05-27T14:02:47.207Z,1.63
2018-05-27T14:05:15.038Z,1.97
2018-05-27T14:07:42.010Z,2.50
2018-05-27T14:10:09.992Z,2.70
2018-05-27T14:12:36.966Z,2.50
2018-05-27T14:15:05.014Z,2.60
2018-05-27T14:17:32.113Z,3.30
2018-05-27T14:20:00.129Z,2.27
2018-05-27T14:22:28.036Z,2.20
2018-05-27T14:24:55.065Z,1.83
2018-05-27T14:27:22.056Z,2.17
2018-05-27T14:29:49.972Z,2.07
2018-05-27T14:32:18.023Z,2.07
2018-05-27T14:34:45.005Z,2.40
2018-05-27T14:37:11.994Z,1.90
2018-05-27T14:39:39.005Z,1.97
2018-05-27T14:42:06.010Z,1.90
2018-05-27T14:44:32.992Z,1.60
2018-05-27T14:47:01.477Z,2.33
2018-05-27T14:49:28.460Z,2.17
2018-05-27T14:51:55.539Z,1.83
2018-05-27T14:54:22.571Z,1.63
2018-05-27T14:56:50.516Z,1.37
2018-05-27T14:59:18.454Z,1.30
2018-05-27T15:01:46.251Z,1.27
2018-05-27T15:06:53.792Z,2.10
2018-05-27T15:09:20.845Z,2.00
2018-05-27T15:11:48.773Z,2.50
2018-05-27T15:14:16.649Z,2.37
2018-05-27T15:16:43.611Z,2.10
2018-05-27T15:19:10.717Z,1.93
2018-05-27T15:21:38.539Z,1.97
2018-05-27T15:24:06.495Z,1.60
2018-05-27T15:26:33.471Z,1.80
2018-05-27T15:29:00.496Z,1.60
2018-05-27T15:31:27.481Z,1.93
2018-05-27T15:33:54.474Z,2.43
2018-05-27T15:36:21.552Z,1.93
2018-05-27T15:38:48.548Z,1.90
2018-05-27T15:41:16.472Z,2.30
2018-05-27T15:43:44.377Z,1.83
2018-05-27T15:46:11.403Z,2.60
2018-05-27T15:48:39.230Z,2.37
2018-05-27T15:51:06.665Z,2.47
2018-05-27T15:53:33.629Z,2.00
2018-05-27T15:56:01.564Z,1.90
2018-05-27T15:58:28.600Z,2.27
2018-05-27T16:00:55.588Z,2.67
2018-05-27T16:03:22.590Z,2.30
2018-05-27T16:05:49.640Z,2.20
2018-05-27T16:08:17.111Z,1.90
2018-05-27T16:10:44.100Z,2.13
2018-05-27T16:13:11.127Z,1.83
2018-05-27T16:15:38.303Z,2.37
2018-05-27T16:18:05.103Z,2.63
2018-05-27T16:20:32.132Z,2.10
2018-05-27T16:25:41.644Z,2.60
2018-05-27T16:28:08.492Z,2.27
2018-05-27T16:30:35.493Z,2.80
2018-05-27T16:33:02.516Z,2.17
2018-05-27T16:35:30.349Z,2.20
2018-05-27T16:37:58.318Z,1.97
2018-05-27T16:40:25.762Z,2.87
2018-05-27T16:42:53.663Z,2.60
2018-05-27T16:45:20.700Z,2.73
2018-05-27T16:47:47.808Z,2.40
2018-05-27T16:50:14.799Z,2.73
2018-05-27T16:52:41.837Z,2.30
2018-05-27T16:55:08.833Z,2.90
2018-05-27T16:57:36.652Z,2.43
2018-05-27T17:00:04.571Z,2.60
2018-05-27T17:02:32.515Z,2.27
2018-05-27T17:04:59.499Z,2.90
2018-05-27T17:07:26.506Z,2.60
2018-05-27T17:09:54.495Z,3.23
2018-05-27T17:12:21.506Z,3.00
2018-05-27T17:14:49.495Z,2.77
2018-05-27T17:17:16.533Z,2.50
2018-05-27T17:19:44.488Z,2.80
2018-05-27T17:22:11.486Z,2.33
2018-05-27T17:24:38.532Z,2.73
2018-05-27T17:29:49.069Z,3.08
2018-05-27T17:32:17.002Z,3.10
2018-05-27T17:34:44.964Z,2.50
2018-05-27T17:37:12.807Z,2.80
2018-05-27T17:39:39.821Z,2.67
2018-05-27T17:42:06.819Z,2.83
2018-05-27T17:44:34.663Z,2.97
2018-05-27T17:47:01.678Z,3.10
2018-05-27T17:49:28.637Z,3.00
2018-05-27T17:51:56.624Z,2.40
2018-05-27T17:54:23.657Z,2.57
2018-05-27T17:56:50.624Z,2.30
2018-05-27T17:59:18.605Z,2.80
2018-05-27T18:01:45.603Z,2.27
2018-05-27T18:04:12.602Z,2.53
2018-05-27T18:06:39.612Z,2.53
2018-05-27T18:09:07.456Z,3.47
2018-05-27T18:11:35.168Z,2.90
2018-05-27T18:14:02.225Z,2.40
2018-05-27T18:16:29.209Z,2.60
2018-05-27T18:18:57.062Z,2.70
2018-05-27T18:21:24.100Z,2.97
2018-05-27T18:23:51.959Z,2.80
2018-05-27T18:26:18.987Z,2.67
2018-05-27T18:28:46.095Z,2.77
2018-05-27T18:31:14.005Z,3.30
2018-05-27T18:33:41.819Z,2.70
2018-05-27T18:36:09.607Z,2.80
2018-05-27T18:38:36.622Z,3.43
2018-05-27T18:41:03.597Z,3.03
2018-05-27T18:43:31.475Z,3.07
2018-05-27T18:48:37.950Z,2.87
2018-05-27T18:51:04.965Z,3.57
2018-05-27T18:53:32.907Z,2.70
2018-05-27T18:56:00.627Z,2.80
2018-05-27T18:58:27.622Z,2.97
2018-05-27T19:00:54.604Z,3.00
2018-05-27T19:03:21.684Z,3.10
2018-05-27T19:05:48.667Z,3.07
2018-05-27T19:08:16.830Z,2.70
2018-05-27T19:10:43.985Z,2.80
2018-05-27T19:13:11.000Z,2.87
2018-05-27T19:15:38.011Z,2.90
2018-05-27T19:18:05.048Z,3.30
2018-05-27T19:20:32.142Z,2.87
2018-05-27T19:23:01.033Z,3.27
2018-05-27T19:25:26.236Z,3.80
2018-05-27T19:27:54.130Z,3.37
2018-05-27T19:30:21.120Z,3.80
2018-05-27T19:32:48.144Z,3.50
2018-05-27T19:35:16.001Z,4.20
2018-05-27T19:37:43.794Z,3.40
2018-05-27T19:40:10.846Z,3.80
2018-05-27T19:42:37.858Z,3.13
2018-05-27T19:45:06.080Z,3.90
2018-05-27T19:47:33.537Z,3.73
2018-05-27T19:50:02.382Z,3.87
2018-05-27T19:52:27.602Z,3.90
2018-05-27T19:54:54.716Z,4.03
2018-05-27T20:00:05.037Z,4.65
2018-05-27T20:02:32.010Z,3.50
2018-05-27T20:04:59.733Z,3.90
2018-05-27T20:07:26.778Z,3.53
2018-05-27T20:09:53.815Z,3.90
2018-05-27T20:12:20.780Z,3.70
2018-05-27T20:14:48.782Z,3.73
2018-05-27T20:17:15.777Z,3.97
2018-05-27T20:19:42.826Z,3.83
2018-05-27T20:22:09.885Z,3.10
2018-05-27T20:24:41.635Z,3.47
2018-05-27T20:27:09.610Z,3.50
2018-05-27T20:29:36.598Z,3.60
2018-05-27T20:32:04.786Z,3.50
2018-05-27T20:34:32.641Z,4.23
2018-05-27T20:36:59.664Z,3.90
2018-05-27T20:39:26.714Z,3.70
2018-05-27T20:41:53.756Z,4.03
2018-05-27T20:44:20.781Z,3.90
2018-05-27T20:46:48.541Z,3.40
2018-05-27T20:49:15.593Z,3.40
2018-05-27T20:54:30.231Z,3.70
2018-05-27T20:56:58.275Z,3.63
2018-05-27T20:59:25.267Z,3.60
2018-05-27T21:01:53.163Z,3.73
2018-05-27T21:04:21.008Z,3.50
2018-05-27T21:06:47.985Z,3.90
2018-05-27T21:09:15.033Z,4.27
2018-05-27T21:11:41.997Z,4.10
2018-05-27T21:14:08.978Z,4.87
2018-05-27T21:19:15.748Z,4.90
2018-05-27T21:21:42.763Z,5.13
2018-05-27T21:24:10.565Z,4.80
2018-05-27T21:26:38.385Z,4.43
2018-05-27T21:29:05.417Z,4.60
2018-05-27T21:31:32.418Z,4.70
2018-05-27T21:34:01.371Z,4.87
2018-05-27T21:36:28.393Z,4.07
2018-05-27T21:38:55.381Z,4.60
2018-05-27T21:41:22.449Z,4.83
2018-05-27T21:43:49.473Z,3.63
2018-05-27T21:46:16.610Z,4.83
2018-05-27T21:48:43.544Z,4.50
2018-05-27T21:51:10.624Z,4.60
2018-05-27T21:53:37.695Z,4.07
2018-05-27T21:56:04.721Z,3.50
2018-05-27T21:58:31.735Z,4.00
2018-05-27T22:00:58.714Z,4.30
2018-05-27T22:03:25.700Z,4.23
2018-05-27T22:05:52.727Z,3.70
2018-05-27T22:08:19.798Z,3.50
2018-05-27T22:10:46.778Z,4.27
2018-05-27T22:13:13.820Z,3.00
2018-05-27T22:15:41.267Z,3.87
2018-05-27T22:18:08.235Z,4.40
2018-05-27T22:20:35.265Z,3.80
2018-05-27T22:23:02.248Z,3.77
2018-05-27T22:28:09.734Z,4.55
2018-05-27T22:30:36.713Z,4.03
2018-05-27T22:33:03.704Z,3.63
2018-05-27T22:35:30.737Z,3.60
2018-05-27T22:37:58.299Z,3.30
2018-05-27T22:40:25.289Z,3.50
2018-05-27T22:42:53.309Z,4.03
2018-05-27T22:45:20.673Z,3.30
2018-05-27T22:47:47.678Z,4.00
2018-05-27T22:50:14.745Z,3.97
2018-05-27T22:52:41.738Z,3.80
2018-05-27T22:55:08.719Z,3.60
2018-05-27T22:57:35.733Z,3.30
2018-05-27T23:00:02.720Z,3.33
2018-05-27T23:02:29.707Z,3.60
2018-05-27T23:04:56.732Z,3.30
2018-05-27T23:07:27.635Z,3.40
2018-05-27T23:09:50.785Z,3.00
2018-05-27T23:12:17.813Z,3.60
2018-05-27T23:14:44.804Z,3.53
2018-05-27T23:17:11.789Z,3.20
2018-05-27T23:19:39.688Z,3.10
2018-05-27T23:22:06.676Z,3.70
2018-05-27T23:24:33.671Z,3.57
2018-05-27T23:27:00.705Z,3.70
2018-05-27T23:29:27.681Z,3.77
2018-05-27T23:31:55.481Z,3.37
2018-05-27T23:34:22.511Z,3.00
2018-05-27T23:36:50.453Z,3.37
2018-05-27T23:39:17.443Z,3.27
2018-05-27T23:41:44.465Z,2.77
2018-05-27T23:44:11.443Z,3.33
2018-05-27T23:49:18.947Z,3.65
2018-05-27T23:51:45.930Z,3.83
2018-05-27T23:54:12.909Z,3.40
2018-05-27T23:56:39.931Z,3.57
2018-05-27T23:59:06.913Z,3.63
